createdAt,value
2018-07-10T00:08:54.482Z,18.30
2018-07-10T00:11:29.380Z,18.40
2018-07-10T00:13:58.026Z,18.40
2018-07-10T00:16:26.674Z,18.40
2018-07-10T00:18:56.202Z,18.50
2018-07-10T00:21:24.817Z,18.50
2018-07-10T00:23:53.582Z,18.50
2018-07-10T00:35:10.562Z,18.60
2018-07-10T00:37:39.390Z,18.60
2018-07-10T00:40:08.197Z,18.50
2018-07-10T00:45:50.902Z,18.50
2018-07-10T00:48:19.617Z,18.50
2018-07-10T00:50:48.259Z,18.40
2018-07-10T00:53:17.035Z,18.40
2018-07-10T00:55:45.731Z,18.40
2018-07-10T00:58:14.539Z,18.40
2018-07-10T01:00:45.585Z,18.30
2018-07-10T01:03:14.328Z,18.30
2018-07-10T01:05:43.024Z,18.20
2018-07-10T01:08:11.708Z,18.10
2018-07-10T01:10:40.539Z,18.00
2018-07-10T01:13:09.305Z,17.90
2018-07-10T01:15:38.478Z,17.80
2018-07-10T01:18:08.357Z,17.80
2018-07-10T01:23:32.311Z,17.70
2018-07-10T01:26:02.006Z,17.70
2018-07-10T01:28:31.986Z,17.70
2018-07-10T01:31:15.026Z,17.60
2018-07-10T01:33:44.459Z,17.60
2018-07-10T01:36:14.085Z,17.50
2018-07-10T01:38:44.216Z,17.50
2018-07-10T01:41:13.829Z,17.50
2018-07-10T01:43:43.985Z,17.50
2018-07-10T01:46:13.712Z,17.50
2018-07-10T01:48:43.452Z,17.50
2018-07-10T01:51:12.884Z,17.50
2018-07-10T01:53:42.599Z,17.50
2018-07-10T01:56:12.343Z,17.50
2018-07-10T01:58:43.572Z,17.40
2018-07-10T02:01:13.203Z,17.40
2018-07-10T02:03:42.910Z,17.40
2018-07-10T02:06:12.980Z,17.30
2018-07-10T02:08:42.534Z,17.10
2018-07-10T02:11:12.129Z,17.00
2018-07-10T02:13:41.318Z,16.90
2018-07-10T02:16:10.984Z,16.80
2018-07-10T02:21:10.876Z,16.80
2018-07-10T02:23:42.892Z,16.80
2018-07-10T02:26:18.414Z,16.80
2018-07-10T02:28:48.783Z,16.80
2018-07-10T02:31:18.414Z,16.80
2018-07-10T02:33:48.085Z,16.70
2018-07-10T02:36:18.038Z,16.70
2018-07-10T02:38:50.105Z,16.60
2018-07-10T02:41:22.418Z,16.50
2018-07-10T02:46:32.571Z,16.30
2018-07-10T02:49:10.628Z,16.30
2018-07-10T02:51:45.680Z,16.20
2018-07-10T02:54:15.528Z,16.20
2018-07-10T02:56:45.703Z,16.20
2018-07-10T02:59:15.248Z,16.20
2018-07-10T03:01:44.745Z,16.20
2018-07-10T03:04:14.213Z,16.00
2018-07-10T03:06:43.900Z,16.00
2018-07-10T03:09:18.558Z,15.90
2018-07-10T03:11:48.126Z,15.90
2018-07-10T03:14:17.727Z,15.90
2018-07-10T03:16:47.915Z,15.90
2018-07-10T03:19:17.345Z,15.90
2018-07-10T03:21:46.624Z,15.90
2018-07-10T03:26:45.512Z,16.00
2018-07-10T03:29:14.783Z,16.00
2018-07-10T03:31:44.944Z,16.00
2018-07-10T03:34:15.670Z,15.90
2018-07-10T03:36:47.493Z,15.90
2018-07-10T03:39:29.448Z,16.00
2018-07-10T03:42:02.373Z,16.00
2018-07-10T03:44:34.282Z,16.00
2018-07-10T03:47:05.341Z,16.10
2018-07-10T03:49:36.657Z,16.10
2018-07-10T03:52:07.588Z,16.10
2018-07-10T03:54:40.264Z,16.20
2018-07-10T03:57:12.383Z,16.20
2018-07-10T03:59:51.719Z,16.20
2018-07-10T04:02:24.286Z,16.30
2018-07-10T04:07:26.720Z,16.10
2018-07-10T04:09:59.872Z,16.20
2018-07-10T04:15:28.437Z,16.20
2018-07-10T04:18:04.988Z,16.30
2018-07-10T04:20:45.857Z,16.40
2018-07-10T04:23:18.429Z,16.40
2018-07-10T04:25:56.560Z,16.50
2018-07-10T04:28:34.817Z,16.60
2018-07-10T04:31:50.621Z,16.60
2018-07-10T04:34:28.205Z,16.80
2018-07-10T04:37:01.743Z,17.00
2018-07-10T04:39:35.817Z,17.00
2018-07-10T04:42:49.001Z,17.20
2018-07-10T04:45:23.768Z,17.40
2018-07-10T04:48:01.575Z,17.60
2018-07-10T04:50:54.056Z,17.70
2018-07-10T04:53:44.823Z,17.80
2018-07-10T05:01:48.177Z,18.20
2018-07-10T05:04:26.244Z,18.20
2018-07-10T05:09:41.355Z,18.40
2018-07-10T05:12:15.176Z,18.50
2018-07-10T05:26:31.326Z,18.80
2018-07-10T05:29:01.589Z,18.90
2018-07-10T05:31:32.553Z,19.00
2018-07-10T05:34:04.056Z,19.10
2018-07-10T05:36:34.945Z,19.20
2018-07-10T05:39:08.478Z,19.20
2018-07-10T05:41:48.755Z,19.30
2018-07-10T05:44:24.137Z,19.30
2018-07-10T05:46:59.015Z,19.20
2018-07-10T05:49:36.169Z,19.20
2018-07-10T05:52:11.260Z,19.40
2018-07-10T05:54:43.832Z,19.80
2018-07-10T05:57:14.606Z,19.90
2018-07-10T05:59:46.773Z,20.10
2018-07-10T06:02:18.759Z,20.20
2018-07-10T06:04:49.404Z,20.40
2018-07-10T06:07:22.892Z,20.40
2018-07-10T06:09:55.068Z,20.30
2018-07-10T06:12:27.423Z,20.30
2018-07-10T06:15:00.937Z,20.40
2018-07-10T06:17:33.483Z,20.50
2018-07-10T06:20:05.476Z,20.70
2018-07-10T06:22:38.652Z,20.80
2018-07-10T06:25:09.867Z,21.00
2018-07-10T06:30:49.867Z,21.30
2018-07-10T06:33:27.506Z,21.40
2018-07-10T06:36:20.654Z,21.40
2018-07-10T06:38:53.805Z,21.30
2018-07-10T06:41:26.103Z,21.40
2018-07-10T06:44:08.001Z,21.30
2018-07-10T06:46:48.137Z,21.30
2018-07-10T06:49:31.519Z,21.20
2018-07-10T06:52:18.046Z,21.10
2018-07-10T06:55:09.408Z,21.20
2018-07-10T06:58:00.099Z,21.30
2018-07-10T07:00:35.215Z,21.20
2018-07-10T07:03:08.568Z,21.20
2018-07-10T07:05:40.562Z,21.40
2018-07-10T07:08:12.698Z,21.60
2018-07-10T07:10:48.306Z,21.70
2018-07-10T07:13:21.512Z,21.80
2018-07-10T07:15:54.111Z,21.90
2018-07-10T07:18:27.334Z,22.00
2018-07-10T07:21:07.343Z,21.90
2018-07-10T07:23:41.591Z,21.90
2018-07-10T07:26:20.483Z,22.00
2018-07-10T07:28:55.027Z,22.00
2018-07-10T07:31:28.928Z,22.00
2018-07-10T07:34:03.213Z,22.00
2018-07-10T07:36:35.839Z,21.90
2018-07-10T07:39:07.469Z,21.90
2018-07-10T07:41:39.787Z,22.10
2018-07-10T07:44:11.742Z,22.40
2018-07-10T07:46:44.700Z,22.40
2018-07-10T07:49:25.318Z,22.30
2018-07-10T07:51:56.071Z,22.40
2018-07-10T07:54:29.103Z,22.00
2018-07-10T07:57:01.001Z,21.70
2018-07-10T07:59:35.559Z,21.70
2018-07-10T08:02:12.018Z,21.40
2018-07-10T08:04:47.233Z,21.40
2018-07-10T08:07:22.487Z,21.60
2018-07-10T08:09:54.952Z,21.60
2018-07-10T08:29:44.464Z,20.40
2018-07-10T08:32:34.586Z,20.30
2018-07-10T08:35:05.158Z,20.30
2018-07-10T08:37:38.752Z,20.70
2018-07-10T08:40:11.745Z,21.10
2018-07-10T08:42:42.305Z,21.30
2018-07-10T08:45:14.548Z,21.40
2018-07-10T08:47:46.161Z,21.60
2018-07-10T08:50:19.440Z,21.80
2018-07-10T08:55:53.521Z,22.00
2018-07-10T08:58:27.608Z,22.30
2018-07-10T09:01:00.414Z,22.60
2018-07-10T09:03:31.456Z,23.00
2018-07-10T09:06:05.203Z,23.30
2018-07-10T09:08:43.679Z,23.30
2018-07-10T09:11:22.248Z,23.40
2018-07-10T09:13:58.377Z,23.80
2018-07-10T09:16:35.225Z,24.30
2018-07-10T09:19:11.983Z,24.50
2018-07-10T09:21:57.420Z,24.70
2018-07-10T09:24:30.026Z,24.50
2018-07-10T09:27:02.070Z,24.20
2018-07-10T09:29:34.878Z,24.10
2018-07-10T09:32:10.163Z,24.30
2018-07-10T09:34:44.731Z,24.60
2018-07-10T09:57:26.762Z,23.50
2018-07-10T09:59:59.754Z,23.30
2018-07-10T10:02:32.607Z,22.60
2018-07-10T10:05:08.052Z,22.10
2018-07-10T10:07:55.869Z,21.80
2018-07-10T10:10:27.311Z,21.50
2018-07-10T10:13:02.165Z,21.30
2018-07-10T10:15:34.506Z,21.10
2018-07-10T10:18:07.219Z,21.00
2018-07-10T10:20:40.576Z,21.20
2018-07-10T10:23:13.233Z,21.10
2018-07-10T10:25:53.822Z,21.00
2018-07-10T10:28:26.644Z,21.00
2018-07-10T10:30:58.707Z,21.10
2018-07-10T10:33:31.654Z,21.10
2018-07-10T10:36:02.236Z,21.30
2018-07-10T10:38:34.449Z,21.70
2018-07-10T10:41:06.204Z,22.00
2018-07-10T10:43:38.437Z,22.20
2018-07-10T10:46:10.822Z,22.20
2018-07-10T10:48:42.801Z,22.10
2018-07-10T10:51:20.021Z,22.40
2018-07-10T11:08:28.820Z,22.40
2018-07-10T11:11:00.290Z,22.00
2018-07-10T11:16:32.134Z,21.60
2018-07-10T11:19:18.897Z,21.40
2018-07-10T11:22:03.158Z,21.20
2018-07-10T11:24:48.250Z,21.00
2018-07-10T11:28:26.914Z,20.90
2018-07-10T11:30:59.931Z,20.50
2018-07-10T11:33:30.404Z,20.30
2018-07-10T11:36:02.393Z,20.20
2018-07-10T11:38:32.884Z,20.10
2018-07-10T11:41:03.714Z,19.90
2018-07-10T11:43:49.440Z,19.70
2018-07-10T11:46:21.989Z,19.60
2018-07-10T11:48:55.119Z,19.60
2018-07-10T11:51:27.391Z,19.60
2018-07-10T11:53:59.428Z,19.60
2018-07-10T11:56:30.866Z,19.60
2018-07-10T11:59:01.868Z,19.50
2018-07-10T12:06:32.591Z,19.20
2018-07-10T12:09:03.249Z,19.10
2018-07-10T12:11:33.635Z,19.20
2018-07-10T12:14:05.487Z,19.40
2018-07-10T12:16:38.436Z,19.80
2018-07-10T12:19:10.447Z,20.10
2018-07-10T12:21:41.601Z,20.30
2018-07-10T12:24:12.470Z,20.40
2018-07-10T12:26:51.055Z,20.50
2018-07-10T12:29:23.739Z,20.60
2018-07-10T12:31:56.128Z,20.70
2018-07-10T12:34:28.729Z,21.00
2018-07-10T12:37:00.848Z,21.30
2018-07-10T12:39:32.280Z,21.40
2018-07-10T12:45:04.701Z,22.10
2018-07-10T12:47:35.602Z,22.30
2018-07-10T12:50:07.014Z,22.30
2018-07-10T12:52:38.332Z,22.10
2018-07-10T12:55:30.757Z,21.80
2018-07-10T12:58:02.978Z,21.60
2018-07-10T13:03:35.173Z,21.50
2018-07-10T13:06:17.417Z,21.40
2018-07-10T13:08:49.902Z,21.40
2018-07-10T13:11:21.696Z,21.60
2018-07-10T13:13:53.201Z,21.60
2018-07-10T13:16:30.425Z,21.60
2018-07-10T13:19:04.264Z,21.70
2018-07-10T13:21:36.416Z,21.80
2018-07-10T13:24:08.381Z,22.00
2018-07-10T13:26:39.322Z,22.10
2018-07-10T13:29:13.552Z,22.10
2018-07-10T13:31:47.712Z,22.30
2018-07-10T13:50:21.930Z,22.00
2018-07-10T13:52:52.884Z,22.10
2018-07-10T13:55:24.668Z,22.30
2018-07-10T13:58:06.410Z,22.40
2018-07-10T14:00:43.129Z,22.70
2018-07-10T14:09:02.418Z,23.70
2018-07-10T14:11:35.542Z,23.20
2018-07-10T14:14:08.168Z,23.20
2018-07-10T14:16:41.701Z,23.20
2018-07-10T14:19:17.001Z,23.20
2018-07-10T14:27:35.952Z,23.30
2018-07-10T14:30:09.264Z,23.20
2018-07-10T14:32:42.801Z,22.90
2018-07-10T14:35:18.157Z,23.10
2018-07-10T14:41:26.097Z,23.30
2018-07-10T14:44:05.388Z,23.10
2018-07-10T14:52:29.877Z,22.40
2018-07-10T15:18:19.102Z,23.20
2018-07-10T15:20:59.530Z,23.10
2018-07-10T15:23:37.782Z,23.10
2018-07-10T15:26:18.292Z,23.10
2018-07-10T15:31:39.474Z,23.30
2018-07-10T15:34:17.903Z,23.40
2018-07-10T15:37:02.515Z,23.50
2018-07-10T15:39:38.613Z,23.40
2018-07-10T15:42:19.019Z,23.40
2018-07-10T15:44:59.765Z,23.40
2018-07-10T15:47:34.163Z,23.30
2018-07-10T15:50:13.354Z,23.30
2018-07-10T15:55:48.060Z,23.30
2018-07-10T15:58:23.265Z,23.30
2018-07-10T16:01:00.472Z,23.30
2018-07-10T16:03:52.666Z,23.30
2018-07-10T16:06:34.094Z,23.50
2018-07-10T16:15:06.859Z,23.80
2018-07-10T16:20:58.103Z,23.90
2018-07-10T16:23:38.412Z,24.30
2018-07-10T16:59:08.053Z,27.30
2018-07-10T17:04:25.766Z,27.50
2018-07-10T17:07:01.175Z,27.30
2018-07-10T17:09:40.958Z,27.00
2018-07-10T17:12:19.090Z,26.80
2018-07-10T17:15:12.745Z,26.70
2018-07-10T17:26:49.697Z,25.00
2018-07-10T17:29:34.055Z,24.30
2018-07-10T17:38:41.107Z,22.90
2018-07-10T18:16:28.861Z,23.00
2018-07-10T18:19:17.549Z,22.50
2018-07-10T18:25:03.340Z,22.80
2018-07-10T18:27:51.124Z,22.60
2018-07-10T18:36:30.402Z,22.20
2018-07-10T18:45:05.754Z,21.60
2018-07-10T18:50:21.025Z,21.40
2018-07-10T18:52:59.620Z,21.20
2018-07-10T18:55:34.610Z,20.90
2018-07-10T18:58:22.990Z,20.80
2018-07-10T19:01:22.128Z,20.60
2018-07-10T19:09:45.909Z,20.10
2018-07-10T19:15:33.570Z,19.80
2018-07-10T19:18:06.481Z,19.50
2018-07-10T19:32:28.700Z,18.80
2018-07-10T19:35:14.852Z,18.70
2018-07-10T19:38:02.156Z,18.60
2018-07-10T19:40:42.312Z,18.50
2018-07-10T19:43:23.648Z,18.40
2018-07-10T19:45:57.505Z,18.30
2018-07-10T19:48:43.526Z,18.20
2018-07-10T19:51:24.741Z,18.00
2018-07-10T19:57:00.803Z,17.80
2018-07-10T19:59:36.203Z,17.60
2018-07-10T20:02:13.632Z,17.40
2018-07-10T20:05:19.309Z,17.30
2018-07-10T20:07:56.489Z,17.20
2018-07-10T20:19:26.805Z,16.60
2018-07-10T20:25:11.352Z,16.30
2018-07-10T20:28:54.126Z,16.20
2018-07-10T20:31:40.942Z,16.10
2018-07-10T20:34:25.998Z,16.00
2018-07-10T20:36:58.719Z,15.80
2018-07-10T20:39:37.020Z,15.70
2018-07-10T20:44:46.778Z,15.40
2018-07-10T20:47:20.451Z,15.30
2018-07-10T20:55:45.288Z,15.10
2018-07-10T20:58:18.956Z,15.10
2018-07-10T21:01:01.031Z,15.00
2018-07-10T21:06:48.999Z,14.80
2018-07-10T21:09:22.515Z,14.80
2018-07-10T21:12:32.060Z,14.70
2018-07-10T21:15:14.532Z,14.60
2018-07-10T21:18:52.684Z,14.60
2018-07-10T21:21:32.528Z,14.60
2018-07-10T21:24:24.009Z,14.50
2018-07-10T21:30:33.783Z,14.40
2018-07-10T21:33:12.741Z,14.30
2018-07-10T21:35:49.539Z,14.20
2018-07-10T21:39:33.288Z,14.20
2018-07-10T21:42:18.645Z,14.30
2018-07-10T21:46:57.174Z,14.20
2018-07-10T21:49:38.469Z,14.10
2018-07-10T21:52:08.308Z,14.00
2018-07-10T21:54:38.930Z,13.90
2018-07-10T21:57:08.985Z,13.90
2018-07-10T21:59:42.274Z,13.80
2018-07-10T22:02:12.728Z,13.70
2018-07-10T22:04:42.685Z,13.70
2018-07-10T22:07:17.397Z,13.70
2018-07-10T22:09:47.763Z,13.70
2018-07-10T22:12:21.020Z,13.70
2018-07-10T22:14:50.964Z,13.70
2018-07-10T22:17:25.462Z,13.80
2018-07-10T22:19:57.203Z,13.80
2018-07-10T22:22:31.022Z,13.90
2018-07-10T22:25:03.952Z,13.90
2018-07-10T22:27:46.125Z,13.80
2018-07-10T22:30:24.444Z,13.80
2018-07-10T22:33:01.952Z,13.80
2018-07-10T22:35:31.532Z,13.80
2018-07-10T22:38:03.513Z,13.80
2018-07-10T22:40:33.522Z,13.70
2018-07-10T22:43:03.824Z,13.60
2018-07-10T22:45:34.578Z,13.60
2018-07-10T22:48:05.135Z,13.40
2018-07-10T22:50:35.807Z,13.40
2018-07-10T22:53:06.068Z,13.40
2018-07-10T22:55:35.796Z,13.40
2018-07-10T22:58:07.553Z,13.40
2018-07-10T23:00:40.592Z,13.50
2018-07-10T23:03:22.297Z,13.50
2018-07-10T23:05:53.226Z,13.50
2018-07-10T23:08:32.198Z,13.70
2018-07-10T23:11:04.753Z,13.70
2018-07-10T23:13:40.042Z,13.70
2018-07-10T23:16:10.745Z,13.80
2018-07-10T23:18:42.341Z,13.90
2018-07-10T23:21:17.362Z,13.90
2018-07-10T23:23:48.667Z,14.00
2018-07-10T23:26:20.514Z,14.20
2018-07-10T23:28:55.247Z,14.20
2018-07-10T23:31:31.507Z,14.30
2018-07-10T23:45:36.500Z,14.50
2018-07-10T23:48:09.506Z,14.60
2018-07-10T23:50:42.701Z,14.70
2018-07-10T23:53:37.488Z,14.60
2018-07-10T23:56:07.508Z,14.40
2018-07-10T23:58:39.083Z,14.40
